Nissan Maru — JG5485 — position and weather

sailwx.info

Track history (hours):
 
Tides and Currents Weather Stations Pressure Air Temp Water Temp Dewpoint Dewpoint Depression Visibility Wind Speed Wind Dir Waves Ship Positions

Nissan Maru

Last reported at 2015-Mar-28 01:33 UTC. Time now 2015-Mar-29 19:39 UTC.
Position N 35°03' E 139°35'.

Length 108 m; draft 7.2 m.

Type: Cargo ship. MMSI: 431400593.

Date/timePositionNaut miles runAvg speedWind from/ knotsBaromVisibWave heightAir tempDewpointWater temp
2015-Mar-28 01:33N 35°03' E 139°35'1312.8
2015-Mar-28 00:33N 35°12' E 139°46'1212.3
2015-Mar-27 23:33N 35°24' E 139°43'5 5.2
2015-Mar-27 22:34N 35°29' E 139°44'0 0.0
2015-Mar-27 21:32N 35°29' E 139°44'0 0.0
2015-Mar-27 20:32N 35°29' E 139°44'0 0.0
2015-Mar-27 19:32N 35°29' E 139°44'0 0.0
2015-Mar-27 18:32N 35°29' E 139°44'0 0.0
2015-Mar-27 17:32N 35°29' E 139°44'0 0.0
2015-Mar-27 16:32N 35°29' E 139°44'0 0.0
2015-Mar-27 15:32N 35°29' E 139°44'0 0.0
2015-Mar-27 14:32N 35°29' E 139°44'0 0.0
2015-Mar-27 13:32N 35°29' E 139°44'0 0.0
2015-Mar-27 12:32N 35°29' E 139°44'2 2.3
2015-Mar-27 11:33N 35°27' E 139°46'3 3.1
2015-Mar-27 10:32N 35°24' E 139°45'0 0.0
2015-Mar-27 09:32N 35°24' E 139°45'6 5.9
2015-Mar-27 08:33N 35°19' E 139°44'1111.5
2015-Mar-27 07:33N 35°07' E 139°45'1312.9
2015-Mar-27 06:33N 34°58' E 139°33'5512.6
2015-Mar-27 02:13N 34°32' E 138°35'  
2015-Mar-24 11:32N 35°02' E 139°33'1313.1
2015-Mar-24 10:33N 35°11' E 139°45'1212.1
2015-Mar-24 09:33N 35°23' E 139°42'1312.8
2015-Mar-24 08:33N 35°31' E 139°54'1110.8
2015-Mar-24 07:33N 35°35' E 140°07'0 0.1
2015-Mar-24 06:28N 35°35' E 140°07'0 0.0
2015-Mar-24 05:16N 35°35' E 140°07'0 0.0
2015-Mar-24 04:28N 35°35' E 140°07'0 0.0
2015-Mar-24 03:28N 35°35' E 140°07'0 0.0
2015-Mar-24 02:28N 35°35' E 140°07'0 0.0
2015-Mar-24 01:28N 35°35' E 140°07'0 0.0
2015-Mar-23 23:28N 35°35' E 140°07'1 1.2
2015-Mar-23 22:33N 35°35' E 140°06'9 8.9
2015-Mar-23 21:33N 35°30' E 139°57'8 8.2
2015-Mar-23 20:33N 35°27' E 139°48'4 3.5
2015-Mar-23 19:31N 35°29' E 139°44'0 0.0
2015-Mar-23 18:31N 35°29' E 139°44'0 0.0
2015-Mar-23 17:28N 35°29' E 139°44'0 0.0
2015-Mar-23 16:31N 35°29' E 139°44'0 0.0
2015-Mar-23 15:31N 35°29' E 139°44'0 0.0
2015-Mar-23 14:31N 35°29' E 139°44'0 0.0
2015-Mar-23 13:31N 35°29' E 139°44'0 0.0
2015-Mar-23 12:31N 35°29' E 139°44'0 0.0
2015-Mar-23 11:28N 35°29' E 139°44'0 0.0
2015-Mar-23 10:31N 35°29' E 139°44'0 0.0
2015-Mar-23 09:31N 35°29' E 139°44'0 0.0
2015-Mar-23 08:28N 35°29' E 139°44'0 0.0
2015-Mar-23 07:28N 35°29' E 139°44'0 0.0
2015-Mar-23 06:28N 35°29' E 139°44'0 0.0
2015-Mar-23 05:28N 35°29' E 139°44'0 0.0
2015-Mar-23 04:25N 35°29' E 139°44'0 0.0
2015-Mar-23 03:28N 35°29' E 139°44'0 0.0
2015-Mar-23 02:31N 35°29' E 139°44'0 0.0
2015-Mar-23 01:31N 35°29' E 139°44'0 0.0
2015-Mar-23 00:31N 35°29' E 139°44'0 0.2
2015-Mar-22 23:33N 35°29' E 139°44'6 6.1
2015-Mar-22 22:34N 35°30' E 139°52'10 9.7
2015-Mar-22 21:33N 35°35' E 140°02'4 3.2
2015-Mar-22 20:26N 35°35' E 140°07'0 0.0
2015-Mar-22 19:32N 35°35' E 140°07'0 0.0
2015-Mar-22 18:26N 35°35' E 140°07'0 0.0
2015-Mar-22 17:32N 35°35' E 140°07'0 0.0
2015-Mar-22 16:26N 35°35' E 140°07'0 0.0
2015-Mar-22 15:26N 35°35' E 140°07'0 0.0
2015-Mar-22 14:26N 35°35' E 140°07'0 0.0
2015-Mar-22 12:26N 35°35' E 140°07'0 0.0
2015-Mar-22 11:20N 35°35' E 140°07'0 0.0
2015-Mar-22 10:26N 35°35' E 140°07'8 0.6
2015-Mar-21 21:22N 35°31' E 139°58'4 5.0
2015-Mar-21 20:32N 35°29' E 139°54'7 7.0
2015-Mar-21 19:33N 35°28' E 139°45'2 1.5
2015-Mar-21 18:31N 35°29' E 139°44'0 0.0
2015-Mar-21 17:31N 35°29' E 139°44'0 0.0
2015-Mar-21 16:31N 35°29' E 139°44'0 0.0
2015-Mar-21 15:31N 35°29' E 139°44'0 0.0
2015-Mar-21 14:31N 35°29' E 139°44'0 0.0
2015-Mar-21 13:31N 35°29' E 139°44'0 0.0
2015-Mar-21 12:31N 35°29' E 139°44'0 0.0
2015-Mar-21 11:25N 35°29' E 139°44'0 0.0
2015-Mar-21 10:31N 35°29' E 139°44'0 0.0
2015-Mar-21 09:31N 35°29' E 139°44'0 0.0
2015-Mar-21 08:31N 35°29' E 139°44'0 0.0
2015-Mar-21 07:31N 35°29' E 139°44'0 0.0
2015-Mar-21 06:31N 35°29' E 139°44'0 0.0
2015-Mar-21 05:31N 35°29' E 139°44'0 0.0
2015-Mar-21 04:31N 35°29' E 139°44'0 0.0
2015-Mar-21 03:31N 35°29' E 139°44'0 0.0
2015-Mar-21 02:31N 35°29' E 139°44'0 0.0
2015-Mar-21 01:31N 35°29' E 139°44'0 0.0
2015-Mar-21 00:13N 35°29' E 139°44'0 0.0
2015-Mar-20 23:31N 35°29' E 139°44'0 0.3
2015-Mar-20 22:33N 35°29' E 139°44'0 0.0
2015-Mar-20 21:33N 35°29' E 139°44'0 0.0
2015-Mar-20 20:33N 35°29' E 139°44'0 0.0
2015-Mar-20 19:33N 35°29' E 139°44'0 0.0
2015-Mar-20 18:33N 35°29' E 139°44'0 0.0
2015-Mar-20 17:33N 35°29' E 139°44'0 0.0
2015-Mar-20 16:33N 35°29' E 139°44'0 0.0
2015-Mar-20 15:33N 35°29' E 139°44'0 0.0
2015-Mar-20 14:33N 35°29' E 139°44'0 0.0
2015-Mar-20 13:33N 35°29' E 139°44'8 8.5
2015-Mar-20 12:33N 35°20' E 139°45'1110.8
2015-Mar-20 11:33N 35°10' E 139°46'1212.4
2015-Mar-20 10:33N 35°00' E 139°37'  
Track history (hours):
 
Tides and Currents Weather Stations Pressure Air Temp Water Temp Dewpoint Dewpoint Depression Visibility Wind Speed Wind Dir Waves Ship Positions

Nissan Maru

Last reported at 2015-Mar-28 01:33 UTC. Time now 2015-Mar-29 19:39 UTC.
Position N 35°03' E 139°35'.

Length 108 m; draft 7.2 m.

Type: Cargo ship. MMSI: 431400593.

Date/timePositionNaut miles runAvg speedWind from/ knotsBaromVisibWave heightAir tempDewpointWater temp
2015-Mar-28 01:33N 35°03' E 139°35'1312.8
2015-Mar-28 00:33N 35°12' E 139°46'1212.3
2015-Mar-27 23:33N 35°24' E 139°43'5 5.2
2015-Mar-27 22:34N 35°29' E 139°44'0 0.0
2015-Mar-27 21:32N 35°29' E 139°44'0 0.0
2015-Mar-27 20:32N 35°29' E 139°44'0 0.0
2015-Mar-27 19:32N 35°29' E 139°44'0 0.0
2015-Mar-27 18:32N 35°29' E 139°44'0 0.0
2015-Mar-27 17:32N 35°29' E 139°44'0 0.0
2015-Mar-27 16:32N 35°29' E 139°44'0 0.0
2015-Mar-27 15:32N 35°29' E 139°44'0 0.0
2015-Mar-27 14:32N 35°29' E 139°44'0 0.0
2015-Mar-27 13:32N 35°29' E 139°44'0 0.0
2015-Mar-27 12:32N 35°29' E 139°44'2 2.3
2015-Mar-27 11:33N 35°27' E 139°46'3 3.1
2015-Mar-27 10:32N 35°24' E 139°45'0 0.0
2015-Mar-27 09:32N 35°24' E 139°45'6 5.9
2015-Mar-27 08:33N 35°19' E 139°44'1111.5
2015-Mar-27 07:33N 35°07' E 139°45'1312.9
2015-Mar-27 06:33N 34°58' E 139°33'5512.6
2015-Mar-27 02:13N 34°32' E 138°35'  
2015-Mar-24 11:32N 35°02' E 139°33'1313.1
2015-Mar-24 10:33N 35°11' E 139°45'1212.1
2015-Mar-24 09:33N 35°23' E 139°42'1312.8
2015-Mar-24 08:33N 35°31' E 139°54'1110.8
2015-Mar-24 07:33N 35°35' E 140°07'0 0.1
2015-Mar-24 06:28N 35°35' E 140°07'0 0.0
2015-Mar-24 05:16N 35°35' E 140°07'0 0.0
2015-Mar-24 04:28N 35°35' E 140°07'0 0.0
2015-Mar-24 03:28N 35°35' E 140°07'0 0.0
2015-Mar-24 02:28N 35°35' E 140°07'0 0.0
2015-Mar-24 01:28N 35°35' E 140°07'0 0.0
2015-Mar-23 23:28N 35°35' E 140°07'1 1.2
2015-Mar-23 22:33N 35°35' E 140°06'9 8.9
2015-Mar-23 21:33N 35°30' E 139°57'8 8.2
2015-Mar-23 20:33N 35°27' E 139°48'4 3.5
2015-Mar-23 19:31N 35°29' E 139°44'0 0.0
2015-Mar-23 18:31N 35°29' E 139°44'0 0.0
2015-Mar-23 17:28N 35°29' E 139°44'0 0.0
2015-Mar-23 16:31N 35°29' E 139°44'0 0.0
2015-Mar-23 15:31N 35°29' E 139°44'0 0.0
2015-Mar-23 14:31N 35°29' E 139°44'0 0.0
2015-Mar-23 13:31N 35°29' E 139°44'0 0.0
2015-Mar-23 12:31N 35°29' E 139°44'0 0.0
2015-Mar-23 11:28N 35°29' E 139°44'0 0.0
2015-Mar-23 10:31N 35°29' E 139°44'0 0.0
2015-Mar-23 09:31N 35°29' E 139°44'0 0.0
2015-Mar-23 08:28N 35°29' E 139°44'0 0.0
2015-Mar-23 07:28N 35°29' E 139°44'0 0.0
2015-Mar-23 06:28N 35°29' E 139°44'0 0.0
2015-Mar-23 05:28N 35°29' E 139°44'0 0.0
2015-Mar-23 04:25N 35°29' E 139°44'0 0.0
2015-Mar-23 03:28N 35°29' E 139°44'0 0.0
2015-Mar-23 02:31N 35°29' E 139°44'0 0.0
2015-Mar-23 01:31N 35°29' E 139°44'0 0.0
2015-Mar-23 00:31N 35°29' E 139°44'0 0.2
2015-Mar-22 23:33N 35°29' E 139°44'6 6.1
2015-Mar-22 22:34N 35°30' E 139°52'10 9.7
2015-Mar-22 21:33N 35°35' E 140°02'4 3.2
2015-Mar-22 20:26N 35°35' E 140°07'0 0.0
2015-Mar-22 19:32N 35°35' E 140°07'0 0.0
2015-Mar-22 18:26N 35°35' E 140°07'0 0.0
2015-Mar-22 17:32N 35°35' E 140°07'0 0.0
2015-Mar-22 16:26N 35°35' E 140°07'0 0.0
2015-Mar-22 15:26N 35°35' E 140°07'0 0.0
2015-Mar-22 14:26N 35°35' E 140°07'0 0.0
2015-Mar-22 12:26N 35°35' E 140°07'0 0.0
2015-Mar-22 11:20N 35°35' E 140°07'0 0.0
2015-Mar-22 10:26N 35°35' E 140°07'8 0.6
2015-Mar-21 21:22N 35°31' E 139°58'4 5.0
2015-Mar-21 20:32N 35°29' E 139°54'7 7.0
2015-Mar-21 19:33N 35°28' E 139°45'2 1.5
2015-Mar-21 18:31N 35°29' E 139°44'0 0.0
2015-Mar-21 17:31N 35°29' E 139°44'0 0.0
2015-Mar-21 16:31N 35°29' E 139°44'0 0.0
2015-Mar-21 15:31N 35°29' E 139°44'0 0.0
2015-Mar-21 14:31N 35°29' E 139°44'0 0.0
2015-Mar-21 13:31N 35°29' E 139°44'0 0.0
2015-Mar-21 12:31N 35°29' E 139°44'0 0.0
2015-Mar-21 11:25N 35°29' E 139°44'0 0.0
2015-Mar-21 10:31N 35°29' E 139°44'0 0.0
2015-Mar-21 09:31N 35°29' E 139°44'0 0.0
2015-Mar-21 08:31N 35°29' E 139°44'0 0.0
2015-Mar-21 07:31N 35°29' E 139°44'0 0.0
2015-Mar-21 06:31N 35°29' E 139°44'0 0.0
2015-Mar-21 05:31N 35°29' E 139°44'0 0.0
2015-Mar-21 04:31N 35°29' E 139°44'0 0.0
2015-Mar-21 03:31N 35°29' E 139°44'0 0.0
2015-Mar-21 02:31N 35°29' E 139°44'0 0.0
2015-Mar-21 01:31N 35°29' E 139°44'0 0.0
2015-Mar-21 00:13N 35°29' E 139°44'0 0.0
2015-Mar-20 23:31N 35°29' E 139°44'0 0.3
2015-Mar-20 22:33N 35°29' E 139°44'0 0.0
2015-Mar-20 21:33N 35°29' E 139°44'0 0.0
2015-Mar-20 20:33N 35°29' E 139°44'0 0.0
2015-Mar-20 19:33N 35°29' E 139°44'0 0.0
2015-Mar-20 18:33N 35°29' E 139°44'0 0.0
2015-Mar-20 17:33N 35°29' E 139°44'0 0.0
2015-Mar-20 16:33N 35°29' E 139°44'0 0.0
2015-Mar-20 15:33N 35°29' E 139°44'0 0.0
2015-Mar-20 14:33N 35°29' E 139°44'0 0.0
2015-Mar-20 13:33N 35°29' E 139°44'8 8.5
2015-Mar-20 12:33N 35°20' E 139°45'1110.8
2015-Mar-20 11:33N 35°10' E 139°46'1212.4
2015-Mar-20 10:33N 35°00' E 139°37'  

Dump ship's entire track history